Stena Suede — ZCEF5 — position and weather

sailwx.info

Track history (hours):
 
Tides and Currents Weather Stations Pressure Air Temp Water Temp Dewpoint Dewpoint Depression Visibility Wind Speed Wind Dir Waves Ship Positions

Stena Suede

Last reported at 2014-Jul-13 08:18 UTC. Time now 2014-Jul-28 20:34 UTC.
Position N 35°36' W 012°48'.
Warning: this ship's position is 15 days out of date.

Length 274 m; draft 8.9 m.

Type: Tanker. MMSI: 310622000.

Date/timePositionNaut miles runAvg speedWind from/ knotsBaromVisibWave heightAir tempDewpointWater temp
2014-Jul-13 08:18N 35°36' W 012°48'1012.6
2014-Jul-13 07:33N 35°45' W 012°45'1312.8
2014-Jul-13 06:33N 35°58' W 012°41'1313.0
2014-Jul-13 05:33N 36°11' W 012°37'1313.5
2014-Jul-13 04:33N 36°24' W 012°34'1313.3
2014-Jul-13 03:33N 36°37' W 012°30'1313.3
2014-Jul-13 02:33N 36°50' W 012°26'1313.4
2014-Jul-13 01:33N 37°03' W 012°23'1313.2
2014-Jul-13 00:33N 37°15' W 012°19'1313.1
2014-Jul-12 23:33N 37°28' W 012°16'1312.9
2014-Jul-12 22:33N 37°41' W 012°12'1313.1
2014-Jul-12 21:33N 37°54' W 012°09'1313.4
2014-Jul-12 20:33N 38°07' W 012°05'1413.5
2014-Jul-12 19:29N 38°21' W 012°01'1212.9
2014-Jul-12 18:33N 38°33' W 011°58'1612.6
2014-Jul-12 17:17N 38°48' W 011°53'2812.7
2014-Jul-12 15:05N 39°16' W 011°47'1912.4
2014-Jul-12 13:33N 39°34' W 011°42'  
2014-Jul-09 23:31N 50°17' W 001°28'1616.4
2014-Jul-09 22:33N 50°20' W 001°04'1915.5
2014-Jul-09 21:19N 50°25' W 000°34'2713.6
2014-Jul-09 19:18N 50°32' E 000°07'1012.9
2014-Jul-09 18:33N 50°35' E 000°22'1313.0
2014-Jul-09 17:33N 50°39' E 000°41'1514.4
2014-Jul-09 16:33N 50°47' E 001°00'1615.6
2014-Jul-09 15:32N 50°56' E 001°20'1616.7
2014-Jul-09 14:33N 51°08' E 001°39'1515.5
2014-Jul-09 13:34N 51°21' E 001°51'1414.3
2014-Jul-09 12:33N 51°33' E 002°05'1413.5
2014-Jul-09 11:29N 51°43' E 002°22'4912.0
2014-Jul-09 07:24N 52°04' E 003°34'1113.1
2014-Jul-09 06:33N 52°03' E 003°51'7 7.3
2014-Jul-09 05:34N 51°60' E 004°02'7 7.3
2014-Jul-09 04:33N 51°55' E 004°12'0 0.2
2014-Jul-09 03:33N 51°55' E 004°12'0 0.0
2014-Jul-09 01:08N 51°55' E 004°12'0 0.0
2014-Jul-09 00:29N 51°55' E 004°12'0 0.0
2014-Jul-08 21:32N 51°55' E 004°12'0 0.0
2014-Jul-08 20:05N 51°55' E 004°12'0 0.0
2014-Jul-08 19:23N 51°55' E 004°12'0 0.0
2014-Jul-08 18:32N 51°55' E 004°12'0 0.0
2014-Jul-08 17:26N 51°55' E 004°12'0 0.0
2014-Jul-08 16:26N 51°55' E 004°12'0 0.0
2014-Jul-08 09:17N 51°55' E 004°12'0 0.0
2014-Jul-08 08:26N 51°55' E 004°12'0 0.0
2014-Jul-08 06:29N 51°55' E 004°12'0 0.0
2014-Jul-08 00:14N 51°55' E 004°12'0 0.0
2014-Jul-07 23:33N 51°55' E 004°12'0 0.2
2014-Jul-07 22:33N 51°56' E 004°12'4 3.8
2014-Jul-07 21:33N 51°58' E 004°07'9 8.6
2014-Jul-07 20:33N 52°01' E 003°55'12 9.3
2014-Jul-07 19:16N 52°00' E 003°35'7 8.7
2014-Jul-07 18:29N 51°59' E 003°24'7 6.2
2014-Jul-07 17:25N 51°58' E 003°14'2 2.0
2014-Jul-07 16:16N 51°56' E 003°12'0 0.0
2014-Jul-07 04:22N 51°56' E 003°12'0 0.1
2014-Jul-07 01:10N 51°56' E 003°12'0 0.0
2014-Jul-07 00:28N 51°56' E 003°12'0 0.0
2014-Jul-06 22:31N 51°56' E 003°12'0 0.0
2014-Jul-06 21:25N 51°56' E 003°12'29 2.2
2014-Jul-06 08:19N 51°41' E 002°32'1114.0
2014-Jul-06 07:33N 51°34' E 002°20'1414.3
2014-Jul-06 06:33N 51°24' E 002°04'1514.6
2014-Jul-06 05:33N 51°13' E 001°48'1514.8
2014-Jul-06 04:34N 51°01' E 001°33'4013.5
2014-Jul-06 01:33N 50°29' E 000°54'1414.0
2014-Jul-06 00:33N 50°25' E 000°33'  
Track history (hours):
 
Tides and Currents Weather Stations Pressure Air Temp Water Temp Dewpoint Dewpoint Depression Visibility Wind Speed Wind Dir Waves Ship Positions

Stena Suede

Last reported at 2014-Jul-13 08:18 UTC. Time now 2014-Jul-28 20:34 UTC.
Position N 35°36' W 012°48'.
Warning: this ship's position is 15 days out of date.

Length 274 m; draft 8.9 m.

Type: Tanker. MMSI: 310622000.

Date/timePositionNaut miles runAvg speedWind from/ knotsBaromVisibWave heightAir tempDewpointWater temp
2014-Jul-13 08:18N 35°36' W 012°48'1012.6
2014-Jul-13 07:33N 35°45' W 012°45'1312.8
2014-Jul-13 06:33N 35°58' W 012°41'1313.0
2014-Jul-13 05:33N 36°11' W 012°37'1313.5
2014-Jul-13 04:33N 36°24' W 012°34'1313.3
2014-Jul-13 03:33N 36°37' W 012°30'1313.3
2014-Jul-13 02:33N 36°50' W 012°26'1313.4
2014-Jul-13 01:33N 37°03' W 012°23'1313.2
2014-Jul-13 00:33N 37°15' W 012°19'1313.1
2014-Jul-12 23:33N 37°28' W 012°16'1312.9
2014-Jul-12 22:33N 37°41' W 012°12'1313.1
2014-Jul-12 21:33N 37°54' W 012°09'1313.4
2014-Jul-12 20:33N 38°07' W 012°05'1413.5
2014-Jul-12 19:29N 38°21' W 012°01'1212.9
2014-Jul-12 18:33N 38°33' W 011°58'1612.6
2014-Jul-12 17:17N 38°48' W 011°53'2812.7
2014-Jul-12 15:05N 39°16' W 011°47'1912.4
2014-Jul-12 13:33N 39°34' W 011°42'  
2014-Jul-09 23:31N 50°17' W 001°28'1616.4
2014-Jul-09 22:33N 50°20' W 001°04'1915.5
2014-Jul-09 21:19N 50°25' W 000°34'2713.6
2014-Jul-09 19:18N 50°32' E 000°07'1012.9
2014-Jul-09 18:33N 50°35' E 000°22'1313.0
2014-Jul-09 17:33N 50°39' E 000°41'1514.4
2014-Jul-09 16:33N 50°47' E 001°00'1615.6
2014-Jul-09 15:32N 50°56' E 001°20'1616.7
2014-Jul-09 14:33N 51°08' E 001°39'1515.5
2014-Jul-09 13:34N 51°21' E 001°51'1414.3
2014-Jul-09 12:33N 51°33' E 002°05'1413.5
2014-Jul-09 11:29N 51°43' E 002°22'4912.0
2014-Jul-09 07:24N 52°04' E 003°34'1113.1
2014-Jul-09 06:33N 52°03' E 003°51'7 7.3
2014-Jul-09 05:34N 51°60' E 004°02'7 7.3
2014-Jul-09 04:33N 51°55' E 004°12'0 0.2
2014-Jul-09 03:33N 51°55' E 004°12'0 0.0
2014-Jul-09 01:08N 51°55' E 004°12'0 0.0
2014-Jul-09 00:29N 51°55' E 004°12'0 0.0
2014-Jul-08 21:32N 51°55' E 004°12'0 0.0
2014-Jul-08 20:05N 51°55' E 004°12'0 0.0
2014-Jul-08 19:23N 51°55' E 004°12'0 0.0
2014-Jul-08 18:32N 51°55' E 004°12'0 0.0
2014-Jul-08 17:26N 51°55' E 004°12'0 0.0
2014-Jul-08 16:26N 51°55' E 004°12'0 0.0
2014-Jul-08 09:17N 51°55' E 004°12'0 0.0
2014-Jul-08 08:26N 51°55' E 004°12'0 0.0
2014-Jul-08 06:29N 51°55' E 004°12'0 0.0
2014-Jul-08 00:14N 51°55' E 004°12'0 0.0
2014-Jul-07 23:33N 51°55' E 004°12'0 0.2
2014-Jul-07 22:33N 51°56' E 004°12'4 3.8
2014-Jul-07 21:33N 51°58' E 004°07'9 8.6
2014-Jul-07 20:33N 52°01' E 003°55'12 9.3
2014-Jul-07 19:16N 52°00' E 003°35'7 8.7
2014-Jul-07 18:29N 51°59' E 003°24'7 6.2
2014-Jul-07 17:25N 51°58' E 003°14'2 2.0
2014-Jul-07 16:16N 51°56' E 003°12'0 0.0
2014-Jul-07 04:22N 51°56' E 003°12'0 0.1
2014-Jul-07 01:10N 51°56' E 003°12'0 0.0
2014-Jul-07 00:28N 51°56' E 003°12'0 0.0
2014-Jul-06 22:31N 51°56' E 003°12'0 0.0
2014-Jul-06 21:25N 51°56' E 003°12'29 2.2
2014-Jul-06 08:19N 51°41' E 002°32'1114.0
2014-Jul-06 07:33N 51°34' E 002°20'1414.3
2014-Jul-06 06:33N 51°24' E 002°04'1514.6
2014-Jul-06 05:33N 51°13' E 001°48'1514.8
2014-Jul-06 04:34N 51°01' E 001°33'4013.5
2014-Jul-06 01:33N 50°29' E 000°54'1414.0
2014-Jul-06 00:33N 50°25' E 000°33'  

Dump ship's entire track history